LEVC/VLC METAR and TAF weather

Enter ICAO airport designator
Station Type Date Time Source
LEVC METAR 2020/03/29 15:00 UTC NOAA

LEVC 291500Z 15009KT 110V200 9999 FEW030 22/08 Q1013 NOSIG


Station Type Date Time Source
LEVC Decoded METAR 2020/03/29 15:00 UTC NOAA

Valencia / Aeropuerto, Spain (LEVC) 39-30N 000-28W 62M
Mar 29, 2020 - 11:00 AM EDT / 2020.03.29 1500 UTC
Wind: from the SSE (150 degrees) at 10 MPH (9 KT) (direction variable):0
Visibility: greater than 7 mile(s):0
Sky conditions: mostly clear
Temperature: 71 F (22 C)
Dew Point: 46 F (8 C)
Relative Humidity: 40%
Pressure (altimeter): 29.91 in. Hg (1013 hPa)
ob: LEVC 291500Z 15009KT 110V200 9999 FEW030 22/08 Q1013 NOSIG
cycle: 15

Station Type Date Time Source
LEVC TAF 2020/03/29 12:27 UTC NOAA

TAF LEVC 291100Z 2912/3012 24008KT 9999 FEW040 TX22/2913Z TN07/3006Z
BECMG 2917/2919 VRB04KT PROB40
TEMPO 3008/3012 4000 RA BKN012 BKN030

Example: see airport list